createdAt,value
2019-02-11T00:02:17.859Z,73.20
2019-02-11T00:04:54.756Z,71.10
2019-02-11T00:07:31.675Z,57.10
2019-02-11T00:10:08.725Z,55.40
2019-02-11T00:12:45.618Z,70.80
2019-02-11T00:25:41.658Z,68.00
2019-02-11T00:28:18.711Z,55.80
2019-02-11T00:30:55.759Z,56.20
2019-02-11T00:33:32.666Z,56.10
2019-02-11T00:36:09.539Z,55.60
2019-02-11T00:38:46.499Z,71.50
2019-02-11T00:41:23.577Z,55.60
2019-02-11T00:44:00.458Z,55.00
2019-02-11T00:46:37.437Z,58.20
2019-02-11T00:49:14.358Z,54.40
2019-02-11T00:51:51.293Z,54.30
2019-02-11T00:54:28.212Z,55.20
2019-02-11T00:57:05.131Z,54.90
2019-02-11T00:59:44.213Z,54.10
2019-02-11T01:02:21.216Z,75.40
2019-02-11T01:04:58.170Z,54.90
2019-02-11T01:07:35.148Z,54.50
2019-02-11T01:10:13.401Z,54.60
2019-02-11T01:12:50.279Z,54.10
2019-02-11T01:15:27.231Z,54.00
2019-02-11T01:18:04.169Z,54.30
2019-02-11T01:20:41.099Z,54.70
2019-02-11T01:23:18.046Z,54.50
2019-02-11T01:25:54.966Z,54.60
2019-02-11T01:28:31.971Z,71.90
2019-02-11T01:31:09.339Z,54.00
2019-02-11T01:33:46.320Z,53.90
2019-02-11T01:36:23.262Z,53.80
2019-02-11T01:39:00.761Z,66.40
2019-02-11T01:41:37.672Z,66.70
2019-02-11T01:44:14.628Z,66.60
2019-02-11T01:46:52.976Z,66.00
2019-02-11T01:49:29.920Z,68.50
2019-02-11T01:52:07.810Z,53.90
2019-02-11T01:54:45.145Z,65.70
2019-02-11T01:57:22.449Z,66.70
2019-02-11T01:59:59.379Z,64.90
2019-02-11T02:02:36.329Z,53.00
2019-02-11T02:05:13.493Z,64.90
2019-02-11T02:07:50.494Z,64.20
2019-02-11T02:10:27.397Z,64.80
2019-02-11T02:13:04.443Z,52.80
2019-02-11T02:15:41.390Z,64.00
2019-02-11T02:18:18.545Z,65.00
2019-02-11T02:20:56.796Z,63.90
2019-02-11T02:23:33.871Z,63.70
2019-02-11T02:26:10.791Z,63.40
2019-02-11T02:28:48.216Z,65.40
2019-02-11T02:31:25.183Z,51.70
2019-02-11T02:34:02.188Z,51.30
2019-02-11T02:36:39.069Z,51.40
2019-02-11T02:39:16.023Z,51.70
2019-02-11T02:41:52.995Z,51.40
2019-02-11T02:44:32.463Z,51.30
2019-02-11T02:47:09.402Z,61.20
2019-02-11T02:52:20.771Z,61.90
2019-02-11T02:54:57.711Z,63.40
2019-02-11T03:00:10.166Z,63.50
2019-02-11T03:02:47.046Z,63.20
2019-02-11T03:05:23.987Z,63.10
2019-02-11T03:08:00.975Z,64.60
2019-02-11T03:10:38.494Z,64.50
2019-02-11T03:13:15.473Z,65.20
2019-02-11T03:15:53.420Z,61.80
2019-02-11T03:21:04.935Z,51.60
2019-02-11T03:23:41.867Z,51.90
2019-02-11T03:26:18.828Z,51.60
2019-02-11T03:28:55.764Z,51.80
2019-02-11T03:31:34.065Z,51.80
2019-02-11T03:34:11.016Z,52.10
2019-02-11T03:36:47.931Z,52.40
2019-02-11T03:39:25.191Z,62.00
2019-02-11T03:42:02.194Z,52.00
2019-02-11T03:44:39.598Z,52.00
2019-02-11T03:47:16.552Z,51.40
2019-02-11T03:49:53.528Z,52.10
2019-02-11T03:52:30.551Z,52.10
2019-02-11T03:55:07.967Z,51.70
2019-02-11T03:57:46.296Z,52.00
2019-02-11T04:00:23.308Z,51.30
2019-02-11T04:03:00.623Z,56.10
2019-02-11T04:05:37.641Z,57.50
2019-02-11T04:08:17.729Z,57.70
2019-02-11T04:10:54.616Z,56.90
2019-02-11T04:16:06.062Z,56.80
2019-02-11T04:21:17.516Z,54.10
2019-02-11T04:23:54.393Z,56.30
2019-02-11T04:26:31.411Z,57.50
2019-02-11T04:29:08.394Z,57.30
2019-02-11T04:31:46.624Z,53.40
2019-02-11T04:34:23.572Z,53.60
2019-02-11T04:37:00.593Z,57.40
2019-02-11T04:44:46.507Z,57.40
2019-02-11T04:47:23.531Z,57.70
2019-02-11T04:50:00.593Z,58.00
2019-02-11T04:52:37.550Z,59.40
2019-02-11T04:55:14.550Z,49.40
2019-02-11T04:57:51.512Z,57.00
2019-02-11T05:00:28.493Z,57.50
2019-02-11T05:13:23.331Z,55.80
2019-02-11T05:16:00.320Z,55.60
2019-02-11T05:18:37.216Z,55.30
2019-02-11T05:21:14.204Z,55.60
2019-02-11T05:26:25.932Z,51.50
2019-02-11T05:34:11.944Z,56.10
2019-02-11T05:36:48.903Z,56.20
2019-02-11T05:47:09.793Z,59.50
2019-02-11T05:52:21.142Z,59.40
2019-02-11T05:54:58.114Z,60.00
2019-02-11T05:57:36.755Z,59.90
2019-02-11T06:00:15.140Z,58.70
2019-02-11T06:05:26.917Z,57.90
2019-02-11T06:08:04.006Z,49.20
2019-02-11T06:10:40.924Z,48.40
2019-02-11T06:13:17.743Z,48.30
2019-02-11T06:15:54.699Z,47.90
2019-02-11T06:18:31.668Z,59.50
2019-02-11T06:21:08.676Z,58.20
2019-02-11T06:23:45.643Z,57.90
2019-02-11T06:26:22.633Z,59.00
2019-02-11T06:28:59.614Z,47.60
2019-02-11T06:31:36.540Z,46.90
2019-02-11T06:34:13.455Z,58.50
2019-02-11T06:36:50.505Z,58.30
2019-02-11T06:39:27.565Z,59.70
2019-02-11T06:44:38.955Z,49.80
2019-02-11T06:47:16.126Z,52.40
2019-02-11T06:50:05.652Z,52.90
2019-02-11T06:52:42.671Z,54.40
2019-02-11T06:55:19.590Z,54.70
2019-02-11T06:57:56.566Z,67.90
2019-02-11T07:00:33.679Z,56.20
2019-02-11T07:03:10.583Z,68.20
2019-02-11T07:05:47.502Z,56.30
2019-02-11T07:08:26.272Z,56.20
2019-02-11T07:11:04.819Z,56.80
2019-02-11T07:13:41.782Z,56.60
2019-02-11T07:16:18.857Z,57.30
2019-02-11T07:18:55.799Z,73.50
2019-02-11T07:21:32.728Z,58.00
2019-02-11T07:24:09.744Z,71.70
2019-02-11T07:26:47.474Z,72.40
2019-02-11T07:29:24.340Z,71.70
2019-02-11T07:32:01.332Z,58.60
2019-02-11T07:34:38.211Z,71.80
2019-02-11T07:37:15.212Z,71.30
2019-02-11T07:39:52.389Z,71.40
2019-02-11T07:42:54.792Z,59.10
2019-02-11T07:45:40.396Z,59.60
2019-02-11T07:48:17.328Z,59.60
2019-02-11T07:50:54.281Z,60.60
2019-02-11T07:53:31.182Z,60.40
2019-02-11T07:56:08.801Z,60.60
2019-02-11T07:58:45.695Z,60.10
2019-02-11T08:01:25.471Z,61.00
2019-02-11T08:04:04.067Z,60.80
2019-02-11T08:06:41.114Z,61.50
2019-02-11T08:09:18.371Z,62.00
2019-02-11T08:11:55.283Z,61.50
2019-02-11T08:14:32.331Z,61.30
2019-02-11T08:17:09.483Z,79.20
2019-02-11T08:19:46.702Z,62.60
2019-02-11T08:22:23.822Z,78.10
2019-02-11T08:25:01.084Z,62.30
2019-02-11T08:27:39.444Z,77.20
2019-02-11T08:30:16.688Z,61.80
2019-02-11T08:32:53.769Z,62.50
2019-02-11T08:35:31.059Z,78.00
2019-02-11T08:38:07.996Z,78.30
2019-02-11T08:40:46.217Z,78.80
2019-02-11T08:43:23.139Z,77.60
2019-02-11T08:46:00.184Z,78.00
2019-02-11T08:48:37.113Z,78.50
2019-02-11T08:51:14.320Z,79.30
2019-02-11T08:53:51.341Z,79.60
2019-02-11T08:59:02.883Z,79.60
2019-02-11T09:01:41.014Z,81.80
2019-02-11T09:04:18.940Z,86.00
2019-02-11T09:06:56.053Z,68.80
2019-02-11T09:09:33.418Z,68.80
2019-02-11T09:12:10.540Z,69.10
2019-02-11T09:14:47.530Z,68.90
2019-02-11T09:17:24.636Z,69.10
2019-02-11T09:20:01.653Z,69.30
2019-02-11T09:22:38.649Z,69.40
2019-02-11T09:25:16.276Z,69.50
2019-02-11T09:27:53.250Z,69.70
2019-02-11T09:30:31.491Z,70.30
2019-02-11T09:33:09.401Z,69.90
2019-02-11T09:35:46.573Z,69.70
2019-02-11T09:38:33.307Z,69.50
2019-02-11T09:41:10.300Z,69.60
2019-02-11T09:43:47.323Z,69.70
2019-02-11T09:46:25.263Z,69.70
2019-02-11T09:49:02.335Z,69.80
2019-02-11T09:51:41.166Z,70.00
2019-02-11T09:54:18.236Z,70.60
2019-02-11T09:56:55.600Z,70.80
2019-02-11T09:59:32.940Z,70.90
2019-02-11T10:02:10.960Z,70.90
2019-02-11T10:04:47.925Z,70.80
2019-02-11T10:07:25.068Z,70.90
2019-02-11T10:10:04.363Z,71.00
2019-02-11T10:12:42.742Z,71.10
2019-02-11T10:15:21.723Z,71.20
2019-02-11T10:17:59.105Z,71.20
2019-02-11T10:20:36.417Z,71.60
2019-02-11T10:23:13.662Z,71.80
2019-02-11T10:25:51.089Z,72.00
2019-02-11T10:28:28.267Z,72.30
2019-02-11T10:31:05.303Z,72.90
2019-02-11T10:33:42.520Z,72.80
2019-02-11T10:36:20.534Z,73.30
2019-02-11T10:38:58.742Z,73.40
2019-02-11T10:41:36.028Z,74.10
2019-02-11T10:44:13.070Z,74.10
2019-02-11T10:46:50.110Z,74.30
2019-02-11T10:49:27.034Z,74.30
2019-02-11T10:52:04.127Z,74.30
2019-02-11T10:54:44.913Z,90.60
2019-02-11T10:57:22.155Z,74.00
2019-02-11T10:59:59.066Z,73.80
2019-02-11T11:02:36.230Z,91.00
2019-02-11T11:05:14.129Z,73.70
2019-02-11T11:07:52.513Z,73.40
2019-02-11T11:10:32.114Z,73.90
2019-02-11T11:13:09.017Z,73.60
2019-02-11T11:15:45.947Z,73.40
2019-02-11T11:18:22.950Z,73.70
2019-02-11T11:20:59.955Z,73.90
2019-02-11T11:23:37.025Z,73.80
2019-02-11T11:26:14.089Z,74.10
2019-02-11T11:28:51.060Z,74.60
2019-02-11T11:31:28.153Z,90.10
2019-02-11T11:34:05.157Z,90.00
2019-02-11T11:36:42.404Z,75.00
2019-02-11T11:39:37.834Z,90.80
2019-02-11T11:42:14.747Z,76.00
2019-02-11T11:44:51.640Z,76.10
2019-02-11T11:47:29.488Z,76.10
2019-02-11T11:50:06.584Z,75.90
2019-02-11T11:52:43.519Z,75.50
2019-02-11T11:55:22.422Z,75.20
2019-02-11T11:57:59.811Z,75.00
2019-02-11T12:00:37.841Z,74.80
2019-02-11T12:03:14.812Z,74.70
2019-02-11T12:05:51.883Z,74.80
2019-02-11T12:08:28.784Z,75.30
2019-02-11T12:11:05.797Z,75.30
2019-02-11T12:13:42.702Z,75.60
2019-02-11T12:16:19.809Z,75.90
2019-02-11T12:18:56.754Z,75.80
2019-02-11T12:21:33.821Z,76.10
2019-02-11T12:24:10.845Z,75.70
2019-02-11T12:26:47.717Z,75.80
2019-02-11T12:29:24.944Z,75.20
2019-02-11T12:32:01.996Z,75.10
2019-02-11T12:34:38.931Z,74.80
2019-02-11T12:37:16.932Z,75.10
2019-02-11T12:39:53.938Z,75.20
2019-02-11T12:42:30.973Z,75.50
2019-02-11T12:45:08.010Z,75.30
2019-02-11T12:47:45.072Z,75.10
2019-02-11T12:50:22.791Z,75.00
2019-02-11T12:52:59.976Z,75.40
2019-02-11T12:55:36.909Z,75.40
2019-02-11T12:58:13.926Z,75.90
2019-02-11T13:00:50.835Z,75.90
2019-02-11T13:03:27.769Z,76.20
2019-02-11T13:06:05.145Z,90.90
2019-02-11T13:08:42.108Z,75.90
2019-02-11T13:11:19.027Z,76.30
2019-02-11T13:13:56.014Z,75.40
2019-02-11T13:16:33.005Z,90.70
2019-02-11T13:19:10.175Z,75.20
2019-02-11T13:21:47.328Z,75.90
2019-02-11T13:24:24.368Z,75.90
2019-02-11T13:27:01.241Z,76.40
2019-02-11T13:29:38.233Z,76.80
2019-02-11T13:32:15.147Z,76.90
2019-02-11T13:34:52.232Z,76.70
2019-02-11T13:37:29.161Z,76.70
2019-02-11T13:40:06.103Z,76.70
2019-02-11T13:42:43.154Z,76.50
2019-02-11T13:45:21.768Z,76.10
2019-02-11T13:48:01.935Z,75.80
2019-02-11T13:50:39.166Z,75.50
2019-02-11T13:53:16.096Z,75.40
2019-02-11T13:55:53.159Z,75.70
2019-02-11T13:58:30.064Z,76.00
2019-02-11T14:01:10.149Z,81.10
2019-02-11T14:03:47.070Z,75.70
2019-02-11T14:06:24.578Z,75.70
2019-02-11T14:09:01.585Z,75.40
2019-02-11T14:11:38.760Z,75.70
2019-02-11T14:14:15.663Z,75.60
2019-02-11T14:16:52.600Z,75.60
2019-02-11T14:19:29.501Z,75.60
2019-02-11T14:22:06.540Z,75.30
2019-02-11T14:24:43.419Z,75.20
2019-02-11T14:27:20.495Z,74.90
2019-02-11T14:29:57.420Z,74.90
2019-02-11T14:32:34.446Z,75.20
2019-02-11T14:35:12.478Z,75.40
2019-02-11T14:37:49.581Z,75.60
2019-02-11T14:40:27.167Z,75.20
2019-02-11T14:43:05.364Z,75.60
2019-02-11T14:45:42.294Z,75.50
2019-02-11T14:48:27.903Z,91.10
2019-02-11T14:50:58.582Z,75.50
2019-02-11T14:53:35.568Z,75.30
2019-02-11T14:56:12.523Z,90.80
2019-02-11T14:58:49.472Z,74.90
2019-02-11T15:01:26.360Z,91.00
2019-02-11T15:04:03.302Z,75.50
2019-02-11T15:06:40.175Z,92.20
2019-02-11T15:09:17.256Z,92.20
2019-02-11T15:11:54.187Z,91.00
2019-02-11T15:14:31.194Z,90.70
2019-02-11T15:17:08.068Z,76.50
2019-02-11T15:19:45.024Z,76.30
2019-02-11T15:22:21.967Z,90.40
2019-02-11T15:24:58.891Z,90.30
2019-02-11T15:27:35.814Z,90.00
2019-02-11T15:30:13.787Z,76.60
2019-02-11T15:32:50.865Z,91.10
2019-02-11T15:35:28.134Z,75.20
2019-02-11T15:38:05.043Z,75.60
2019-02-11T15:40:41.955Z,75.50
2019-02-11T15:43:18.890Z,91.50
2019-02-11T15:45:55.864Z,76.30
2019-02-11T15:48:33.651Z,76.30
2019-02-11T15:51:10.648Z,90.70
2019-02-11T15:53:47.477Z,76.30
2019-02-11T15:58:58.911Z,91.20
2019-02-11T16:01:35.869Z,91.90
2019-02-11T16:04:12.795Z,92.30
2019-02-11T16:06:49.754Z,91.80
2019-02-11T16:09:27.309Z,92.10
2019-02-11T16:12:04.286Z,78.50
2019-02-11T16:14:41.335Z,86.90
2019-02-11T16:17:18.272Z,78.60
2019-02-11T16:19:55.526Z,78.50
2019-02-11T16:22:32.460Z,78.80
2019-02-11T16:25:09.469Z,78.80
2019-02-11T16:27:46.514Z,78.60
2019-02-11T16:30:24.301Z,78.40
2019-02-11T16:33:01.570Z,78.40
2019-02-11T16:35:38.711Z,78.40
2019-02-11T16:38:15.643Z,78.50
2019-02-11T16:40:52.552Z,78.40
2019-02-11T16:43:29.463Z,77.90
2019-02-11T16:46:06.382Z,77.90
2019-02-11T16:48:43.389Z,77.80
2019-02-11T16:51:20.295Z,78.10
2019-02-11T16:53:57.252Z,78.20
2019-02-11T16:56:34.418Z,78.20
2019-02-11T16:59:11.417Z,78.00
2019-02-11T17:01:48.329Z,92.50
2019-02-11T17:06:59.693Z,90.90
2019-02-11T17:09:37.178Z,91.10
2019-02-11T17:12:14.102Z,90.70
2019-02-11T17:14:51.037Z,90.80
2019-02-11T17:17:28.003Z,91.20
2019-02-11T17:20:05.163Z,90.60
2019-02-11T17:22:42.062Z,90.70
2019-02-11T17:25:19.250Z,90.40
2019-02-11T17:27:56.513Z,90.50
2019-02-11T17:30:34.078Z,90.90
2019-02-11T17:33:11.152Z,90.80
2019-02-11T17:35:48.051Z,90.70
2019-02-11T17:38:24.992Z,90.50
2019-02-11T17:41:01.896Z,90.80
2019-02-11T17:43:38.757Z,91.00
2019-02-11T17:46:15.715Z,90.70
2019-02-11T17:48:52.649Z,91.10
2019-02-11T17:51:29.660Z,90.50
2019-02-11T17:54:06.597Z,90.80
2019-02-11T17:56:43.679Z,90.80
2019-02-11T17:59:20.714Z,91.70
2019-02-11T18:08:21.360Z,86.80
2019-02-11T18:13:32.737Z,90.10
2019-02-11T18:16:09.647Z,90.40
2019-02-11T18:18:46.579Z,90.10
2019-02-11T18:21:23.499Z,90.30
2019-02-11T18:24:00.527Z,90.70
2019-02-11T18:26:37.441Z,91.20
2019-02-11T18:29:14.400Z,91.00
2019-02-11T18:31:51.279Z,91.00
2019-02-11T18:34:28.343Z,90.30
2019-02-11T18:37:05.266Z,90.10
2019-02-11T18:39:42.238Z,90.30
2019-02-11T18:42:19.239Z,90.30
2019-02-11T18:44:56.168Z,90.20
2019-02-11T18:47:33.076Z,90.50
2019-02-11T18:50:10.389Z,90.60
2019-02-11T18:55:21.974Z,90.70
2019-02-11T18:57:58.907Z,90.60
2019-02-11T19:00:35.793Z,90.00
2019-02-11T19:03:12.734Z,89.10
2019-02-11T19:05:49.646Z,89.30
2019-02-11T19:11:01.024Z,89.20
2019-02-11T19:16:12.483Z,88.80
2019-02-11T19:21:25.615Z,88.50
2019-02-11T19:24:03.284Z,88.30
2019-02-11T19:26:40.199Z,88.10
2019-02-11T19:29:17.158Z,87.30
2019-02-11T19:31:54.106Z,87.50
2019-02-11T19:34:30.998Z,87.10
2019-02-11T19:37:07.920Z,86.90
2019-02-11T19:39:44.748Z,86.20
2019-02-11T19:44:56.239Z,86.30
2019-02-11T19:50:07.601Z,85.80
2019-02-11T19:52:44.778Z,85.60
2019-02-11T19:55:21.973Z,85.50
2019-02-11T20:00:36.075Z,86.40
2019-02-11T20:03:13.115Z,86.30
2019-02-11T20:05:50.013Z,86.00
2019-02-11T20:08:26.949Z,86.70
2019-02-11T20:11:03.860Z,87.60
2019-02-11T20:16:15.319Z,80.30
2019-02-11T20:18:53.470Z,80.70
2019-02-11T20:21:31.625Z,75.80
2019-02-11T20:24:08.652Z,71.30
2019-02-11T20:26:45.551Z,66.50
2019-02-11T20:29:23.543Z,66.90
2019-02-11T20:32:00.467Z,67.90
2019-02-11T20:34:37.400Z,70.10
2019-02-11T20:37:14.331Z,68.30
2019-02-11T20:39:53.410Z,68.50
2019-02-11T20:42:30.278Z,68.40
2019-02-11T20:47:41.700Z,67.20
2019-02-11T20:50:18.618Z,67.80
2019-02-11T20:52:55.586Z,68.40
2019-02-11T20:58:06.962Z,68.70
2019-02-11T21:00:44.464Z,70.20
2019-02-11T21:03:21.419Z,69.40
2019-02-11T21:05:58.333Z,69.40
2019-02-11T21:08:36.551Z,69.70
2019-02-11T21:11:13.647Z,52.20
2019-02-11T21:13:50.603Z,66.80
2019-02-11T21:16:28.538Z,67.30
2019-02-11T21:19:05.414Z,64.30
2019-02-11T21:21:42.450Z,48.50
2019-02-11T21:24:19.361Z,47.70
2019-02-11T21:26:56.234Z,47.70
2019-02-11T21:29:35.851Z,47.30
2019-02-11T21:32:13.045Z,48.60
2019-02-11T21:34:49.984Z,48.40
2019-02-11T21:37:26.983Z,47.80
2019-02-11T21:40:03.917Z,45.70
2019-02-11T21:42:41.012Z,60.20
2019-02-11T21:45:18.326Z,45.30
2019-02-11T21:47:55.259Z,45.00
2019-02-11T21:50:32.144Z,45.50
2019-02-11T21:53:11.918Z,43.90
2019-02-11T21:55:48.818Z,44.00
2019-02-11T21:58:25.771Z,57.90
2019-02-11T22:01:02.801Z,73.60
2019-02-11T22:03:39.818Z,40.80
2019-02-11T22:06:16.733Z,40.20
2019-02-11T22:11:28.075Z,44.80
2019-02-11T22:14:05.106Z,39.40
2019-02-11T22:16:41.978Z,41.10
2019-02-11T22:19:18.880Z,53.20
2019-02-11T22:21:55.845Z,38.70
2019-02-11T22:24:32.728Z,51.70
2019-02-11T22:27:11.567Z,37.60
2019-02-11T22:29:49.429Z,36.60
2019-02-11T22:32:26.351Z,36.50
2019-02-11T22:35:04.063Z,36.00
2019-02-11T22:37:40.958Z,35.30
2019-02-11T22:40:18.220Z,35.00
2019-02-11T22:42:55.118Z,33.80
2019-02-11T22:45:32.184Z,32.90
2019-02-11T22:48:09.126Z,32.60
2019-02-11T22:53:20.688Z,33.80
2019-02-11T22:55:57.697Z,39.20
2019-02-11T22:58:34.649Z,37.20
2019-02-11T23:01:12.686Z,37.20
2019-02-11T23:08:59.920Z,35.50
2019-02-11T23:11:37.769Z,35.90
2019-02-11T23:19:23.737Z,36.20
2019-02-11T23:24:35.451Z,32.20
2019-02-11T23:27:12.537Z,36.80
2019-02-11T23:29:50.685Z,37.80
2019-02-11T23:32:27.656Z,38.00
2019-02-11T23:35:04.611Z,35.20
2019-02-11T23:37:42.539Z,34.60
2019-02-11T23:40:19.564Z,35.30
2019-02-11T23:42:56.490Z,35.20
2019-02-11T23:45:33.392Z,33.10
2019-02-11T23:48:10.417Z,32.70
2019-02-11T23:55:56.407Z,33.90
2019-02-11T23:58:35.904Z,32.90
